sensor_id;sensor_type;location;lat;lon;timestamp;pressure;altitude;pressure_sealevel;temperature;humidity
13478;BME280;12598;62.382;17.344;2023-10-31T00:00:04;100589.78;;;17.80;23.76
13478;BME280;12598;62.382;17.344;2023-10-31T00:01:06;100591.56;;;17.88;23.62
13478;BME280;12598;62.382;17.344;2023-10-31T00:02:09;100594.41;;;17.87;23.73
13478;BME280;12598;62.382;17.344;2023-10-31T00:03:10;100576.53;;;17.78;23.64
13478;BME280;12598;62.382;17.344;2023-10-31T00:04:12;100591.72;;;17.87;23.70
13478;BME280;12598;62.382;17.344;2023-10-31T00:05:14;100593.66;;;17.85;23.75
13478;BME280;12598;62.382;17.344;2023-10-31T00:06:18;100586.81;;;17.83;23.92
13478;BME280;12598;62.382;17.344;2023-10-31T00:07:20;100585.25;;;17.80;23.61
13478;BME280;12598;62.382;17.344;2023-10-31T00:08:22;100599.03;;;17.85;23.69
13478;BME280;12598;62.382;17.344;2023-10-31T00:09:25;100593.97;;;17.82;23.59
13478;BME280;12598;62.382;17.344;2023-10-31T00:10:27;100596.50;;;17.83;23.57
13478;BME280;12598;62.382;17.344;2023-10-31T00:11:29;100601.88;;;17.83;23.58
13478;BME280;12598;62.382;17.344;2023-10-31T00:12:32;100601.00;;;17.83;23.73
13478;BME280;12598;62.382;17.344;2023-10-31T00:13:33;100601.00;;;17.83;23.55
13478;BME280;12598;62.382;17.344;2023-10-31T00:14:35;100610.03;;;17.82;23.49
13478;BME280;12598;62.382;17.344;2023-10-31T00:15:37;100603.84;;;17.82;23.52
13478;BME280;12598;62.382;17.344;2023-10-31T00:16:39;100607.50;;;17.81;23.77
13478;BME280;12598;62.382;17.344;2023-10-31T00:17:41;100609.31;;;17.80;23.72
13478;BME280;12598;62.382;17.344;2023-10-31T00:18:43;100599.63;;;17.79;23.75
13478;BME280;12598;62.382;17.344;2023-10-31T00:19:45;100587.53;;;17.75;23.54
13478;BME280;12598;62.382;17.344;2023-10-31T00:20:47;100602.16;;;17.81;23.53
13478;BME280;12598;62.382;17.344;2023-10-31T00:21:49;100604.97;;;17.79;23.46
13478;BME280;12598;62.382;17.344;2023-10-31T00:22:51;100601.91;;;17.74;23.78
13478;BME280;12598;62.382;17.344;2023-10-31T00:23:53;100610.31;;;17.79;23.50
13478;BME280;12598;62.382;17.344;2023-10-31T00:24:54;100611.31;;;17.78;23.85
13478;BME280;12598;62.382;17.344;2023-10-31T00:25:56;100608.63;;;17.78;23.73
13478;BME280;12598;62.382;17.344;2023-10-31T00:26:58;100610.63;;;17.76;23.60
13478;BME280;12598;62.382;17.344;2023-10-31T00:28:00;100603.06;;;17.72;23.84
13478;BME280;12598;62.382;17.344;2023-10-31T00:29:02;100614.97;;;17.77;23.80
13478;BME280;12598;62.382;17.344;2023-10-31T00:30:04;100617.66;;;17.77;23.82
13478;BME280;12598;62.382;17.344;2023-10-31T00:31:07;100616.97;;;17.75;23.87
13478;BME280;12598;62.382;17.344;2023-10-31T00:32:09;100610.22;;;17.71;23.95
13478;BME280;12598;62.382;17.344;2023-10-31T00:33:11;100619.50;;;17.77;23.79
13478;BME280;12598;62.382;17.344;2023-10-31T00:34:13;100627.53;;;17.77;23.60
13478;BME280;12598;62.382;17.344;2023-10-31T00:35:15;100628.34;;;17.77;23.95
13478;BME280;12598;62.382;17.344;2023-10-31T00:36:18;100625.84;;;17.76;23.82
13478;BME280;12598;62.382;17.344;2023-10-31T00:37:20;100630.34;;;17.75;23.54
13478;BME280;12598;62.382;17.344;2023-10-31T00:38:21;100628.66;;;17.74;23.50
13478;BME280;12598;62.382;17.344;2023-10-31T00:39:23;100630.34;;;17.75;23.46
13478;BME280;12598;62.382;17.344;2023-10-31T00:40:26;100625.28;;;17.72;23.86
13478;BME280;12598;62.382;17.344;2023-10-31T00:41:27;100618.81;;;17.75;23.43
13478;BME280;12598;62.382;17.344;2023-10-31T00:42:29;100620.78;;;17.73;23.81
13478;BME280;12598;62.382;17.344;2023-10-31T00:43:31;100626.13;;;17.73;23.73
13478;BME280;12598;62.382;17.344;2023-10-31T00:44:33;100626.97;;;17.73;23.56
13478;BME280;12598;62.382;17.344;2023-10-31T00:45:35;100603.66;;;17.66;23.94
13478;BME280;12598;62.382;17.344;2023-10-31T00:46:37;100621.22;;;17.68;23.63
13478;BME280;12598;62.382;17.344;2023-10-31T00:47:39;100620.09;;;17.71;23.45
13478;BME280;12598;62.382;17.344;2023-10-31T00:48:41;100608.44;;;17.62;23.69
13478;BME280;12598;62.382;17.344;2023-10-31T00:49:43;100623.59;;;17.71;23.91
13478;BME280;12598;62.382;17.344;2023-10-31T00:50:44;100620.53;;;17.66;24.01
13478;BME280;12598;62.382;17.344;2023-10-31T00:51:46;100620.22;;;17.69;23.68
13478;BME280;12598;62.382;17.344;2023-10-31T00:52:48;100607.84;;;17.68;23.67
13478;BME280;12598;62.382;17.344;2023-10-31T00:53:50;100617.56;;;17.69;23.84
13478;BME280;12598;62.382;17.344;2023-10-31T00:54:52;100610.53;;;17.68;23.98
13478;BME280;12598;62.382;17.344;2023-10-31T00:55:53;100613.19;;;17.68;23.81
13478;BME280;12598;62.382;17.344;2023-10-31T00:56:55;100600.44;;;17.62;23.67
13478;BME280;12598;62.382;17.344;2023-10-31T00:57:57;100607.84;;;17.68;23.73
13478;BME280;12598;62.382;17.344;2023-10-31T00:58:59;100605.19;;;17.68;23.73
13478;BME280;12598;62.382;17.344;2023-10-31T01:00:02;100602.50;;;17.68;23.96
13478;BME280;12598;62.382;17.344;2023-10-31T01:01:04;100607.03;;;17.68;23.81
13478;BME280;12598;62.382;17.344;2023-10-31T01:02:06;100611.53;;;17.67;23.70
13478;BME280;12598;62.382;17.344;2023-10-31T01:03:08;100602.81;;;17.65;24.07
13478;BME280;12598;62.382;17.344;2023-10-31T01:04:10;100597.47;;;17.65;23.80
13478;BME280;12598;62.382;17.344;2023-10-31T01:05:12;100602.69;;;17.67;23.49
13478;BME280;12598;62.382;17.344;2023-10-31T01:06:14;100608.16;;;17.65;23.51
13478;BME280;12598;62.382;17.344;2023-10-31T01:07:16;100605.34;;;17.67;23.73
13478;BME280;12598;62.382;17.344;2023-10-31T01:08:19;100596.78;;;17.63;24.01
13478;BME280;12598;62.382;17.344;2023-10-31T01:09:20;100604.63;;;17.65;23.64
13478;BME280;12598;62.382;17.344;2023-10-31T01:10:22;100613.50;;;17.65;24.08
13478;BME280;12598;62.382;17.344;2023-10-31T01:11:24;100605.47;;;17.65;24.01
13478;BME280;12598;62.382;17.344;2023-10-31T01:12:26;100611.69;;;17.66;23.67
13478;BME280;12598;62.382;17.344;2023-10-31T01:13:29;100608.16;;;17.65;23.85
13478;BME280;12598;62.382;17.344;2023-10-31T01:14:31;100609.00;;;17.66;23.77
13478;BME280;12598;62.382;17.344;2023-10-31T01:15:33;100596.06;;;17.61;23.71
13478;BME280;12598;62.382;17.344;2023-10-31T01:16:35;100618.84;;;17.65;23.91
13478;BME280;12598;62.382;17.344;2023-10-31T01:17:37;100608.16;;;17.65;23.63
13478;BME280;12598;62.382;17.344;2023-10-31T01:18:39;100604.78;;;17.63;23.55
13478;BME280;12598;62.382;17.344;2023-10-31T01:19:41;100613.81;;;17.62;23.85
13478;BME280;12598;62.382;17.344;2023-10-31T01:20:44;100618.16;;;17.63;23.89
13478;BME280;12598;62.382;17.344;2023-10-31T01:21:46;100618.16;;;17.63;23.84
13478;BME280;12598;62.382;17.344;2023-10-31T01:22:48;100631.53;;;17.63;23.75
13478;BME280;12598;62.382;17.344;2023-10-31T01:23:50;100625.31;;;17.63;23.65
13478;BME280;12598;62.382;17.344;2023-10-31T01:24:52;100623.09;;;17.58;23.85
13478;BME280;12598;62.382;17.344;2023-10-31T01:25:54;100605.41;;;17.48;24.08
13478;BME280;12598;62.382;17.344;2023-10-31T01:26:56;100601.06;;;17.47;23.71
13478;BME280;12598;62.382;17.344;2023-10-31T01:27:58;100623.81;;;17.60;24.09
13478;BME280;12598;62.382;17.344;2023-10-31T01:28:59;100614.09;;;17.59;24.11
13478;BME280;12598;62.382;17.344;2023-10-31T01:30:02;100615.22;;;17.57;23.96
13478;BME280;12598;62.382;17.344;2023-10-31T01:31:05;100614.09;;;17.59;23.93
13478;BME280;12598;62.382;17.344;2023-10-31T01:32:07;100619.44;;;17.59;23.86
13478;BME280;12598;62.382;17.344;2023-10-31T01:33:22;100612.94;;;17.62;23.66
13478;BME280;12598;62.382;17.344;2023-10-31T01:34:24;100605.53;;;17.56;23.87
13478;BME280;12598;62.382;17.344;2023-10-31T01:35:26;100616.59;;;17.61;23.79
13478;BME280;12598;62.382;17.344;2023-10-31T01:36:28;100619.44;;;17.59;24.06
13478;BME280;12598;62.382;17.344;2023-10-31T01:37:30;100607.06;;;17.58;24.08
13478;BME280;12598;62.382;17.344;2023-10-31T01:38:31;100607.91;;;17.59;23.72
13478;BME280;12598;62.382;17.344;2023-10-31T01:39:36;100602.31;;;17.52;23.89
13478;BME280;12598;62.382;17.344;2023-10-31T01:40:37;100608.75;;;17.59;24.06
13478;BME280;12598;62.382;17.344;2023-10-31T01:41:42;100608.06;;;17.57;24.05
13478;BME280;12598;62.382;17.344;2023-10-31T01:42:44;100603.72;;;17.56;23.85
13478;BME280;12598;62.382;17.344;2023-10-31T01:43:47;100612.41;;;17.58;23.81
13478;BME280;12598;62.382;17.344;2023-10-31T01:44:50;100610.72;;;17.57;23.61
13478;BME280;12598;62.382;17.344;2023-10-31T01:45:52;100613.00;;;17.52;23.97
13478;BME280;12598;62.382;17.344;2023-10-31T01:46:54;100606.81;;;17.52;23.79
13478;BME280;12598;62.382;17.344;2023-10-31T01:47:56;100618.06;;;17.55;23.88
13478;BME280;12598;62.382;17.344;2023-10-31T01:48:59;100616.22;;;17.56;23.57
13478;BME280;12598;62.382;17.344;2023-10-31T01:50:01;100619.06;;;17.54;24.13
13478;BME280;12598;62.382;17.344;2023-10-31T01:51:03;100613.69;;;17.54;23.82
13478;BME280;12598;62.382;17.344;2023-10-31T01:52:06;100618.06;;;17.55;23.91
13478;BME280;12598;62.382;17.344;2023-10-31T01:53:08;100613.69;;;17.54;23.57
13478;BME280;12598;62.382;17.344;2023-10-31T01:54:12;100608.66;;;17.51;23.88
13478;BME280;12598;62.382;17.344;2023-10-31T01:55:14;100603.00;;;17.54;23.90
13478;BME280;12598;62.382;17.344;2023-10-31T01:56:16;100612.72;;;17.55;24.06
13478;BME280;12598;62.382;17.344;2023-10-31T01:57:18;100604.81;;;17.54;24.04
13478;BME280;12598;62.382;17.344;2023-10-31T01:58:25;100604.28;;;17.50;23.67
13478;BME280;12598;62.382;17.344;2023-10-31T01:59:30;100608.34;;;17.54;24.01
13478;BME280;12598;62.382;17.344;2023-10-31T02:00:32;100605.69;;;17.54;23.98
13478;BME280;12598;62.382;17.344;2023-10-31T02:01:37;100596.56;;;17.47;24.14
13478;BME280;12598;62.382;17.344;2023-10-31T02:02:40;100592.91;;;17.48;23.98
13478;BME280;12598;62.382;17.344;2023-10-31T02:03:45;100604.00;;;17.53;24.15
13478;BME280;12598;62.382;17.344;2023-10-31T02:04:47;100599.66;;;17.52;23.89
13478;BME280;12598;62.382;17.344;2023-10-31T02:05:51;100592.75;;;17.50;23.83
13478;BME280;12598;62.382;17.344;2023-10-31T02:06:54;100598.78;;;17.52;24.01
13478;BME280;12598;62.382;17.344;2023-10-31T02:07:56;100597.97;;;17.51;24.25
13478;BME280;12598;62.382;17.344;2023-10-31T02:08:58;100592.63;;;17.51;23.82
13478;BME280;12598;62.382;17.344;2023-10-31T02:09:59;100595.28;;;17.51;23.87
13478;BME280;12598;62.382;17.344;2023-10-31T02:11:02;100592.22;;;17.46;24.17
13478;BME280;12598;62.382;17.344;2023-10-31T02:12:05;100598.94;;;17.50;23.98
13478;BME280;12598;62.382;17.344;2023-10-31T02:13:15;100604.44;;;17.49;24.14
13478;BME280;12598;62.382;17.344;2023-10-31T02:14:18;100611.16;;;17.53;23.78
13478;BME280;12598;62.382;17.344;2023-10-31T02:15:20;100605.00;;;17.52;24.26
13478;BME280;12598;62.382;17.344;2023-10-31T02:16:24;100597.56;;;17.46;23.87
13478;BME280;12598;62.382;17.344;2023-10-31T02:17:27;100610.47;;;17.51;23.82
13478;BME280;12598;62.382;17.344;2023-10-31T02:18:29;100604.28;;;17.50;24.42
13478;BME280;12598;62.382;17.344;2023-10-31T02:19:31;100613.31;;;17.49;24.33
13478;BME280;12598;62.382;17.344;2023-10-31T02:20:34;100609.78;;;17.49;24.06
13478;BME280;12598;62.382;17.344;2023-10-31T02:21:39;100609.09;;;17.47;24.24
13478;BME280;12598;62.382;17.344;2023-10-31T02:22:40;100607.97;;;17.49;23.81
13478;BME280;12598;62.382;17.344;2023-10-31T02:23:42;100614.13;;;17.50;23.96
13478;BME280;12598;62.382;17.344;2023-10-31T02:24:44;100609.94;;;17.47;24.17
13478;BME280;12598;62.382;17.344;2023-10-31T02:25:46;100607.28;;;17.47;23.96
13478;BME280;12598;62.382;17.344;2023-10-31T02:26:48;100605.59;;;17.46;24.16
13478;BME280;12598;62.382;17.344;2023-10-31T02:27:50;100607.28;;;17.47;24.21
13478;BME280;12598;62.382;17.344;2023-10-31T02:28:52;100594.47;;;17.41;23.92
13478;BME280;12598;62.382;17.344;2023-10-31T02:29:53;100608.25;;;17.46;24.15
13478;BME280;12598;62.382;17.344;2023-10-31T02:30:55;100603.03;;;17.45;24.09
13478;BME280;12598;62.382;17.344;2023-10-31T02:31:57;100608.25;;;17.46;23.89
13478;BME280;12598;62.382;17.344;2023-10-31T02:33:01;100608.38;;;17.45;24.21
13478;BME280;12598;62.382;17.344;2023-10-31T02:34:03;100608.38;;;17.45;23.70
13478;BME280;12598;62.382;17.344;2023-10-31T02:35:06;100607.41;;;17.46;23.98
13478;BME280;12598;62.382;17.344;2023-10-31T02:36:08;100605.72;;;17.45;23.83
13478;BME280;12598;62.382;17.344;2023-10-31T02:37:10;100604.91;;;17.44;24.13
13478;BME280;12598;62.382;17.344;2023-10-31T02:38:12;100602.06;;;17.46;24.09
13478;BME280;12598;62.382;17.344;2023-10-31T02:39:14;100606.72;;;17.44;24.25
13478;BME280;12598;62.382;17.344;2023-10-31T02:40:16;100610.25;;;17.44;24.38
13478;BME280;12598;62.382;17.344;2023-10-31T02:41:17;100596.03;;;17.44;24.13
13478;BME280;12598;62.382;17.344;2023-10-31T02:42:19;100586.75;;;17.38;24.24
13478;BME280;12598;62.382;17.344;2023-10-31T02:43:21;100597.00;;;17.43;23.82
13478;BME280;12598;62.382;17.344;2023-10-31T02:44:23;100585.22;;;17.36;24.02
13478;BME280;12598;62.382;17.344;2023-10-31T02:45:25;100597.59;;;17.37;24.28
13478;BME280;12598;62.382;17.344;2023-10-31T02:46:27;100589.72;;;17.35;24.03
13478;BME280;12598;62.382;17.344;2023-10-31T02:47:29;100591.78;;;17.41;24.08
13478;BME280;12598;62.382;17.344;2023-10-31T02:48:31;100592.66;;;17.42;24.50
13478;BME280;12598;62.382;17.344;2023-10-31T02:49:41;100594.34;;;17.43;24.30
13478;BME280;12598;62.382;17.344;2023-10-31T02:50:42;100595.16;;;17.43;24.15
13478;BME280;12598;62.382;17.344;2023-10-31T02:51:44;100590.81;;;17.42;23.90
13478;BME280;12598;62.382;17.344;2023-10-31T02:52:46;100579.59;;;17.29;24.07
13478;BME280;12598;62.382;17.344;2023-10-31T02:53:48;100589.13;;;17.41;24.04
13478;BME280;12598;62.382;17.344;2023-10-31T02:54:50;100592.78;;;17.40;24.34
13478;BME280;12598;62.382;17.344;2023-10-31T02:55:52;100594.47;;;17.41;24.03
13478;BME280;12598;62.382;17.344;2023-10-31T02:56:53;100596.31;;;17.41;24.34
13478;BME280;12598;62.382;17.344;2023-10-31T02:57:55;100582.09;;;17.40;24.39
13478;BME280;12598;62.382;17.344;2023-10-31T02:58:57;100588.72;;;17.36;24.14
13478;BME280;12598;62.382;17.344;2023-10-31T02:59:59;100592.78;;;17.40;24.35
13478;BME280;12598;62.382;17.344;2023-10-31T03:01:01;100590.13;;;17.40;23.92
13478;BME280;12598;62.382;17.344;2023-10-31T03:02:03;100583.78;;;17.41;24.16
13478;BME280;12598;62.382;17.344;2023-10-31T03:03:05;100591.97;;;17.40;24.36
13478;BME280;12598;62.382;17.344;2023-10-31T03:04:07;100587.44;;;17.40;24.02
13478;BME280;12598;62.382;17.344;2023-10-31T03:05:09;100590.97;;;17.41;24.29
13478;BME280;12598;62.382;17.344;2023-10-31T03:06:11;100580.41;;;17.39;24.12
13478;BME280;12598;62.382;17.344;2023-10-31T03:07:13;100591.09;;;17.39;24.00
13478;BME280;12598;62.382;17.344;2023-10-31T03:08:15;100592.78;;;17.40;24.24
13478;BME280;12598;62.382;17.344;2023-10-31T03:09:21;100579.03;;;17.35;24.44
13478;BME280;12598;62.382;17.344;2023-10-31T03:10:23;100588.28;;;17.41;24.41
13478;BME280;12598;62.382;17.344;2023-10-31T03:11:26;100569.59;;;17.31;24.41
13478;BME280;12598;62.382;17.344;2023-10-31T03:12:30;100572.69;;;17.36;23.93
13478;BME280;12598;62.382;17.344;2023-10-31T03:13:32;100578.44;;;17.41;24.10
13478;BME280;12598;62.382;17.344;2023-10-31T03:14:34;100583.78;;;17.41;24.17
13478;BME280;12598;62.382;17.344;2023-10-31T03:15:35;100568.34;;;17.35;24.15
13478;BME280;12598;62.382;17.344;2023-10-31T03:16:37;100582.09;;;17.40;24.04
13478;BME280;12598;62.382;17.344;2023-10-31T03:17:41;100589.97;;;17.42;24.01
13478;BME280;12598;62.382;17.344;2023-10-31T03:18:43;100579.03;;;17.35;24.29
13478;BME280;12598;62.382;17.344;2023-10-31T03:19:45;100589.41;;;17.38;24.22
13478;BME280;12598;62.382;17.344;2023-10-31T03:20:46;100590.81;;;17.42;24.46
13478;BME280;12598;62.382;17.344;2023-10-31T03:21:49;100589.97;;;17.42;24.19
13478;BME280;12598;62.382;17.344;2023-10-31T03:22:51;100583.78;;;17.41;24.18
13478;BME280;12598;62.382;17.344;2023-10-31T03:23:53;100585.47;;;17.42;24.20
13478;BME280;12598;62.382;17.344;2023-10-31T03:24:57;100587.13;;;17.43;24.67
13478;BME280;12598;62.382;17.344;2023-10-31T03:25:59;100584.63;;;17.42;24.36
13478;BME280;12598;62.382;17.344;2023-10-31T03:27:01;100590.81;;;17.42;23.99
13478;BME280;12598;62.382;17.344;2023-10-31T03:28:02;100585.47;;;17.42;24.17
13478;BME280;12598;62.382;17.344;2023-10-31T03:29:04;100589.13;;;17.41;24.01
13478;BME280;12598;62.382;17.344;2023-10-31T03:30:06;100593.66;;;17.41;23.78
13478;BME280;12598;62.382;17.344;2023-10-31T03:31:09;100589.13;;;17.41;23.87
13478;BME280;12598;62.382;17.344;2023-10-31T03:32:12;100588.59;;;17.38;24.13
13478;BME280;12598;62.382;17.344;2023-10-31T03:33:14;100599.81;;;17.41;23.89
13478;BME280;12598;62.382;17.344;2023-10-31T03:34:16;100587.72;;;17.37;23.95
13478;BME280;12598;62.382;17.344;2023-10-31T03:35:18;100560.66;;;17.23;24.18
13478;BME280;12598;62.382;17.344;2023-10-31T03:36:20;100598.13;;;17.40;23.85
13478;BME280;12598;62.382;17.344;2023-10-31T03:37:21;100598.13;;;17.40;24.13
13478;BME280;12598;62.382;17.344;2023-10-31T03:38:23;100599.81;;;17.41;24.07
13478;BME280;12598;62.382;17.344;2023-10-31T03:39:25;100596.31;;;17.41;24.01
13478;BME280;12598;62.382;17.344;2023-10-31T03:40:27;100593.78;;;17.39;24.05
13478;BME280;12598;62.382;17.344;2023-10-31T03:41:29;100596.44;;;17.39;24.32
13478;BME280;12598;62.382;17.344;2023-10-31T03:42:31;100591.97;;;17.40;23.92
13478;BME280;12598;62.382;17.344;2023-10-31T03:43:32;100600.09;;;17.38;23.86
13478;BME280;12598;62.382;17.344;2023-10-31T03:44:34;100596.44;;;17.39;24.03
13478;BME280;12598;62.382;17.344;2023-10-31T03:45:36;100600.09;;;17.38;23.88
13478;BME280;12598;62.382;17.344;2023-10-31T03:46:38;100574.84;;;17.23;24.00
13478;BME280;12598;62.382;17.344;2023-10-31T03:47:40;100608.13;;;17.38;23.64
13478;BME280;12598;62.382;17.344;2023-10-31T03:48:41;100605.44;;;17.38;23.77
13478;BME280;12598;62.382;17.344;2023-10-31T03:49:43;100599.56;;;17.35;24.12
13478;BME280;12598;62.382;17.344;2023-10-31T03:50:45;100619.69;;;17.39;24.26
13478;BME280;12598;62.382;17.344;2023-10-31T03:51:47;100601.78;;;17.39;23.82
13478;BME280;12598;62.382;17.344;2023-10-31T03:52:49;100589.03;;;17.33;23.82
13478;BME280;12598;62.382;17.344;2023-10-31T03:53:50;100598.28;;;17.39;23.82
13478;BME280;12598;62.382;17.344;2023-10-31T03:54:52;100592.38;;;17.35;24.18
13478;BME280;12598;62.382;17.344;2023-10-31T03:55:54;100596.59;;;17.38;23.84
13478;BME280;12598;62.382;17.344;2023-10-31T03:56:56;100605.44;;;17.38;23.89
13478;BME280;12598;62.382;17.344;2023-10-31T03:57:59;100604.63;;;17.38;24.09
13478;BME280;12598;62.382;17.344;2023-10-31T03:59:01;100600.09;;;17.38;24.15
13478;BME280;12598;62.382;17.344;2023-10-31T04:00:03;100602.78;;;17.38;23.76
13478;BME280;12598;62.382;17.344;2023-10-31T04:01:13;100600.81;;;17.40;24.09
13478;BME280;12598;62.382;17.344;2023-10-31T04:02:15;100599.72;;;17.33;23.79
13478;BME280;12598;62.382;17.344;2023-10-31T04:03:17;100607.13;;;17.39;24.17
13478;BME280;12598;62.382;17.344;2023-10-31T04:04:19;100603.63;;;17.39;24.15
13478;BME280;12598;62.382;17.344;2023-10-31T04:05:21;100600.09;;;17.38;23.93
13478;BME280;12598;62.382;17.344;2023-10-31T04:06:24;100592.56;;;17.34;24.14
13478;BME280;12598;62.382;17.344;2023-10-31T04:07:26;100598.59;;;17.36;23.94
13478;BME280;12598;62.382;17.344;2023-10-31T04:08:28;100604.63;;;17.38;23.85
13478;BME280;12598;62.382;17.344;2023-10-31T04:09:30;100607.13;;;17.39;24.14
13478;BME280;12598;62.382;17.344;2023-10-31T04:10:31;100601.78;;;17.39;24.02
13478;BME280;12598;62.382;17.344;2023-10-31T04:11:33;100601.78;;;17.39;23.95
13478;BME280;12598;62.382;17.344;2023-10-31T04:12:35;100597.13;;;17.41;24.08
13478;BME280;12598;62.382;17.344;2023-10-31T04:13:37;100595.47;;;17.40;23.75
13478;BME280;12598;62.382;17.344;2023-10-31T04:14:39;100598.13;;;17.40;23.77
13478;BME280;12598;62.382;17.344;2023-10-31T04:15:40;100591.97;;;17.40;23.93
13478;BME280;12598;62.382;17.344;2023-10-31T04:16:42;100596.44;;;17.39;23.88
13478;BME280;12598;62.382;17.344;2023-10-31T04:17:47;100591.78;;;17.41;24.35
13478;BME280;12598;62.382;17.344;2023-10-31T04:18:49;100600.66;;;17.42;24.09
13478;BME280;12598;62.382;17.344;2023-10-31T04:19:51;100593.66;;;17.41;23.97
13478;BME280;12598;62.382;17.344;2023-10-31T04:20:53;100589.13;;;17.41;23.67
13478;BME280;12598;62.382;17.344;2023-10-31T04:21:54;100585.22;;;17.36;23.90
13478;BME280;12598;62.382;17.344;2023-10-31T04:22:56;100582.94;;;17.41;23.73
13478;BME280;12598;62.382;17.344;2023-10-31T04:23:58;100583.94;;;17.40;23.74
13478;BME280;12598;62.382;17.344;2023-10-31T04:25:00;100585.63;;;17.41;23.64
13478;BME280;12598;62.382;17.344;2023-10-31T04:26:02;100586.63;;;17.40;23.83
13478;BME280;12598;62.382;17.344;2023-10-31T04:27:04;100591.97;;;17.40;23.60
13478;BME280;12598;62.382;17.344;2023-10-31T04:28:06;100594.63;;;17.40;23.69
13478;BME280;12598;62.382;17.344;2023-10-31T04:29:08;100576.63;;;17.32;23.67
13478;BME280;12598;62.382;17.344;2023-10-31T04:30:10;100578.19;;;17.35;23.87
13478;BME280;12598;62.382;17.344;2023-10-31T04:31:15;100594.63;;;17.40;23.78
13478;BME280;12598;62.382;17.344;2023-10-31T04:32:17;100590.28;;;17.39;23.84
13478;BME280;12598;62.382;17.344;2023-10-31T04:33:19;100589.41;;;17.38;23.98
13478;BME280;12598;62.382;17.344;2023-10-31T04:34:21;100589.41;;;17.38;24.00
13478;BME280;12598;62.382;17.344;2023-10-31T04:35:22;100589.59;;;17.37;23.85
13478;BME280;12598;62.382;17.344;2023-10-31T04:36:24;100601.97;;;17.38;23.67
13478;BME280;12598;62.382;17.344;2023-10-31T04:37:26;100590.41;;;17.37;23.57
13478;BME280;12598;62.382;17.344;2023-10-31T04:38:28;100594.94;;;17.37;23.59
13478;BME280;12598;62.382;17.344;2023-10-31T04:39:30;100598.72;;;17.34;23.71
13478;BME280;12598;62.382;17.344;2023-10-31T04:40:31;100592.25;;;17.37;23.80
13478;BME280;12598;62.382;17.344;2023-10-31T04:41:33;100560.38;;;17.16;23.49
13478;BME280;12598;62.382;17.344;2023-10-31T04:42:35;100596.75;;;17.36;24.03
13478;BME280;12598;62.382;17.344;2023-10-31T04:43:37;100606.59;;;17.36;23.91
13478;BME280;12598;62.382;17.344;2023-10-31T04:44:39;100587.59;;;17.29;23.81
13478;BME280;12598;62.382;17.344;2023-10-31T04:45:40;100588.03;;;17.34;23.84
13478;BME280;12598;62.382;17.344;2023-10-31T04:46:43;100585.91;;;17.28;23.51
13478;BME280;12598;62.382;17.344;2023-10-31T04:47:45;100593.38;;;17.34;23.78
13478;BME280;12598;62.382;17.344;2023-10-31T04:48:47;100600.41;;;17.35;23.68
13478;BME280;12598;62.382;17.344;2023-10-31T04:49:49;100597.72;;;17.35;23.70
13478;BME280;12598;62.382;17.344;2023-10-31T04:50:51;100598.72;;;17.34;23.93
13478;BME280;12598;62.382;17.344;2023-10-31T04:51:52;100598.72;;;17.34;23.70
13478;BME280;12598;62.382;17.344;2023-10-31T04:52:54;100604.06;;;17.34;23.82
13478;BME280;12598;62.382;17.344;2023-10-31T04:53:56;100603.34;;;17.32;23.49
13478;BME280;12598;62.382;17.344;2023-10-31T04:54:58;100608.59;;;17.34;23.71
13478;BME280;12598;62.382;17.344;2023-10-31T04:56:00;100613.94;;;17.34;23.60
13478;BME280;12598;62.382;17.344;2023-10-31T04:57:02;100610.41;;;17.33;23.86
13478;BME280;12598;62.382;17.344;2023-10-31T04:58:05;100613.78;;;17.35;23.54
13478;BME280;12598;62.382;17.344;2023-10-31T04:59:07;100615.63;;;17.35;23.62
13478;BME280;12598;62.382;17.344;2023-10-31T05:00:09;100612.09;;;17.34;23.95
13478;BME280;12598;62.382;17.344;2023-10-31T05:01:12;100617.44;;;17.34;23.54
13478;BME280;12598;62.382;17.344;2023-10-31T05:02:14;100613.78;;;17.35;23.70
13478;BME280;12598;62.382;17.344;2023-10-31T05:03:16;100613.78;;;17.35;23.78
13478;BME280;12598;62.382;17.344;2023-10-31T05:04:19;100610.09;;;17.36;23.72
13478;BME280;12598;62.382;17.344;2023-10-31T05:05:21;100614.75;;;17.34;23.54
13478;BME280;12598;62.382;17.344;2023-10-31T05:06:23;100619.97;;;17.36;23.96
13478;BME280;12598;62.382;17.344;2023-10-31T05:07:25;100612.09;;;17.34;23.84
13478;BME280;12598;62.382;17.344;2023-10-31T05:08:27;100612.09;;;17.34;23.85
13478;BME280;12598;62.382;17.344;2023-10-31T05:09:29;100616.44;;;17.35;23.51
13478;BME280;12598;62.382;17.344;2023-10-31T05:10:31;100611.34;;;17.32;23.52
13478;BME280;12598;62.382;17.344;2023-10-31T05:11:32;100610.28;;;17.35;23.52
13478;BME280;12598;62.382;17.344;2023-10-31T05:12:35;100617.44;;;17.34;23.60
13478;BME280;12598;62.382;17.344;2023-10-31T05:13:40;100613.94;;;17.34;23.42
13478;BME280;12598;62.382;17.344;2023-10-31T05:14:42;100614.63;;;17.36;23.87
13478;BME280;12598;62.382;17.344;2023-10-31T05:15:44;100619.28;;;17.34;23.52
13478;BME280;12598;62.382;17.344;2023-10-31T05:16:47;100609.66;;;17.31;23.79
13478;BME280;12598;62.382;17.344;2023-10-31T05:17:48;100610.28;;;17.35;23.72
13478;BME280;12598;62.382;17.344;2023-10-31T05:18:50;100613.06;;;17.33;23.54
13478;BME280;12598;62.382;17.344;2023-10-31T05:19:52;100614.75;;;17.34;23.45
13478;BME280;12598;62.382;17.344;2023-10-31T05:20:54;100609.41;;;17.34;23.68